sensor_id;sensor_type;location;lat;lon;timestamp;P1;durP1;ratioP1;P2;durP2;ratioP2
8540;SDS011;4308;51.294;6.590;2022-12-19T00:00:21;42.13;;;22.47;;
8540;SDS011;4308;51.294;6.590;2022-12-19T00:02:48;42.27;;;20.53;;
8540;SDS011;4308;51.294;6.590;2022-12-19T00:05:16;45.97;;;23.73;;
8540;SDS011;4308;51.294;6.590;2022-12-19T00:07:46;34.83;;;17.97;;
8540;SDS011;4308;51.294;6.590;2022-12-19T00:10:14;40.40;;;19.87;;
8540;SDS011;4308;51.294;6.590;2022-12-19T00:12:41;43.20;;;20.40;;
8540;SDS011;4308;51.294;6.590;2022-12-19T00:15:09;50.20;;;22.43;;
8540;SDS011;4308;51.294;6.590;2022-12-19T00:17:37;47.20;;;22.33;;
8540;SDS011;4308;51.294;6.590;2022-12-19T00:20:04;43.67;;;21.07;;
8540;SDS011;4308;51.294;6.590;2022-12-19T00:22:32;43.63;;;20.40;;
8540;SDS011;4308;51.294;6.590;2022-12-19T00:25:00;41.40;;;20.53;;
8540;SDS011;4308;51.294;6.590;2022-12-19T00:27:32;44.67;;;20.97;;
8540;SDS011;4308;51.294;6.590;2022-12-19T00:29:59;36.27;;;21.00;;
8540;SDS011;4308;51.294;6.590;2022-12-19T00:32:27;45.20;;;21.20;;
8540;SDS011;4308;51.294;6.590;2022-12-19T00:34:54;38.90;;;19.03;;
8540;SDS011;4308;51.294;6.590;2022-12-19T00:37:23;40.87;;;20.03;;
8540;SDS011;4308;51.294;6.590;2022-12-19T00:39:51;40.40;;;19.57;;
8540;SDS011;4308;51.294;6.590;2022-12-19T00:42:18;43.83;;;20.80;;
8540;SDS011;4308;51.294;6.590;2022-12-19T00:44:46;44.60;;;20.77;;
8540;SDS011;4308;51.294;6.590;2022-12-19T00:47:17;47.37;;;21.33;;
8540;SDS011;4308;51.294;6.590;2022-12-19T00:49:44;48.00;;;22.37;;
8540;SDS011;4308;51.294;6.590;2022-12-19T00:52:16;39.87;;;20.43;;
8540;SDS011;4308;51.294;6.590;2022-12-19T00:54:43;45.33;;;20.40;;
8540;SDS011;4308;51.294;6.590;2022-12-19T00:57:11;41.80;;;20.57;;
8540;SDS011;4308;51.294;6.590;2022-12-19T00:59:39;46.90;;;22.00;;
8540;SDS011;4308;51.294;6.590;2022-12-19T01:02:06;47.10;;;21.73;;
8540;SDS011;4308;51.294;6.590;2022-12-19T01:04:34;42.07;;;19.73;;
8540;SDS011;4308;51.294;6.590;2022-12-19T01:07:07;50.10;;;23.97;;
8540;SDS011;4308;51.294;6.590;2022-12-19T01:09:35;48.70;;;23.40;;
8540;SDS011;4308;51.294;6.590;2022-12-19T01:12:03;42.50;;;22.23;;
8540;SDS011;4308;51.294;6.590;2022-12-19T01:14:31;42.30;;;20.43;;
8540;SDS011;4308;51.294;6.590;2022-12-19T01:16:58;46.80;;;21.93;;
8540;SDS011;4308;51.294;6.590;2022-12-19T01:19:26;48.37;;;22.17;;
8540;SDS011;4308;51.294;6.590;2022-12-19T01:21:54;46.17;;;23.27;;
8540;SDS011;4308;51.294;6.590;2022-12-19T01:24:22;45.03;;;20.80;;
8540;SDS011;4308;51.294;6.590;2022-12-19T01:26:49;47.30;;;23.30;;
8540;SDS011;4308;51.294;6.590;2022-12-19T01:29:17;44.73;;;23.27;;
8540;SDS011;4308;51.294;6.590;2022-12-19T01:31:44;45.83;;;23.23;;
8540;SDS011;4308;51.294;6.590;2022-12-19T01:34:12;50.50;;;22.93;;
8540;SDS011;4308;51.294;6.590;2022-12-19T01:36:39;46.40;;;21.43;;
8540;SDS011;4308;51.294;6.590;2022-12-19T01:39:07;41.87;;;20.63;;
8540;SDS011;4308;51.294;6.590;2022-12-19T01:41:34;41.03;;;22.17;;
8540;SDS011;4308;51.294;6.590;2022-12-19T01:44:04;45.80;;;23.33;;
8540;SDS011;4308;51.294;6.590;2022-12-19T01:46:36;48.93;;;22.40;;
8540;SDS011;4308;51.294;6.590;2022-12-19T01:49:05;45.27;;;19.30;;
8540;SDS011;4308;51.294;6.590;2022-12-19T01:51:45;43.37;;;20.57;;
8540;SDS011;4308;51.294;6.590;2022-12-19T01:54:15;38.83;;;19.30;;
8540;SDS011;4308;51.294;6.590;2022-12-19T01:56:45;39.13;;;19.60;;
8540;SDS011;4308;51.294;6.590;2022-12-19T01:59:13;38.43;;;19.63;;
8540;SDS011;4308;51.294;6.590;2022-12-19T02:01:42;40.90;;;19.60;;
8540;SDS011;4308;51.294;6.590;2022-12-19T02:04:17;38.87;;;19.60;;
8540;SDS011;4308;51.294;6.590;2022-12-19T02:06:45;42.97;;;20.53;;
8540;SDS011;4308;51.294;6.590;2022-12-19T02:09:13;39.13;;;19.63;;
8540;SDS011;4308;51.294;6.590;2022-12-19T02:11:41;47.17;;;21.13;;
8540;SDS011;4308;51.294;6.590;2022-12-19T02:14:09;39.67;;;20.63;;
8540;SDS011;4308;51.294;6.590;2022-12-19T02:21:46;40.63;;;19.57;;
8540;SDS011;4308;51.294;6.590;2022-12-19T02:35:08;34.83;;;17.33;;
8540;SDS011;4308;51.294;6.590;2022-12-19T02:37:44;44.40;;;20.67;;
8540;SDS011;4308;51.294;6.590;2022-12-19T02:40:22;41.77;;;20.17;;
8540;SDS011;4308;51.294;6.590;2022-12-19T02:42:53;39.87;;;20.47;;
8540;SDS011;4308;51.294;6.590;2022-12-19T02:45:24;35.67;;;18.60;;
8540;SDS011;4308;51.294;6.590;2022-12-19T02:47:54;39.70;;;20.70;;
8540;SDS011;4308;51.294;6.590;2022-12-19T02:50:25;42.60;;;20.73;;
8540;SDS011;4308;51.294;6.590;2022-12-19T02:52:52;43.80;;;20.60;;
8540;SDS011;4308;51.294;6.590;2022-12-19T02:55:23;42.13;;;21.23;;
8540;SDS011;4308;51.294;6.590;2022-12-19T03:00:40;43.63;;;21.33;;
8540;SDS011;4308;51.294;6.590;2022-12-19T03:03:16;43.57;;;21.97;;
8540;SDS011;4308;51.294;6.590;2022-12-19T03:08:27;41.67;;;20.60;;
8540;SDS011;4308;51.294;6.590;2022-12-19T03:10:58;44.80;;;20.23;;
8540;SDS011;4308;51.294;6.590;2022-12-19T03:16:13;37.83;;;21.03;;
8540;SDS011;4308;51.294;6.590;2022-12-19T03:18:40;37.90;;;19.07;;
8540;SDS011;4308;51.294;6.590;2022-12-19T03:21:22;42.30;;;21.60;;
8540;SDS011;4308;51.294;6.590;2022-12-19T03:23:52;44.73;;;20.53;;
8540;SDS011;4308;51.294;6.590;2022-12-19T03:26:21;38.43;;;20.13;;
8540;SDS011;4308;51.294;6.590;2022-12-19T03:28:53;38.53;;;20.23;;
8540;SDS011;4308;51.294;6.590;2022-12-19T03:31:23;39.93;;;21.70;;
8540;SDS011;4308;51.294;6.590;2022-12-19T03:34:12;40.13;;;21.70;;
8540;SDS011;4308;51.294;6.590;2022-12-19T03:36:43;39.67;;;20.07;;
8540;SDS011;4308;51.294;6.590;2022-12-19T03:39:12;46.13;;;22.83;;
8540;SDS011;4308;51.294;6.590;2022-12-19T03:41:40;37.13;;;18.33;;
8540;SDS011;4308;51.294;6.590;2022-12-19T03:44:09;45.30;;;23.40;;
8540;SDS011;4308;51.294;6.590;2022-12-19T03:46:38;45.73;;;20.27;;
8540;SDS011;4308;51.294;6.590;2022-12-19T03:49:07;45.87;;;21.20;;
8540;SDS011;4308;51.294;6.590;2022-12-19T03:56:45;44.60;;;21.50;;
8540;SDS011;4308;51.294;6.590;2022-12-19T04:02:00;43.20;;;20.27;;
8540;SDS011;4308;51.294;6.590;2022-12-19T04:04:28;44.87;;;21.97;;
8540;SDS011;4308;51.294;6.590;2022-12-19T04:06:56;45.87;;;21.13;;
8540;SDS011;4308;51.294;6.590;2022-12-19T04:09:24;42.67;;;23.13;;
8540;SDS011;4308;51.294;6.590;2022-12-19T04:11:53;47.27;;;23.00;;
8540;SDS011;4308;51.294;6.590;2022-12-19T04:14:24;42.93;;;20.93;;
8540;SDS011;4308;51.294;6.590;2022-12-19T04:16:58;50.27;;;23.33;;
8540;SDS011;4308;51.294;6.590;2022-12-19T04:19:30;46.13;;;21.63;;
8540;SDS011;4308;51.294;6.590;2022-12-19T04:22:12;48.03;;;22.97;;
8540;SDS011;4308;51.294;6.590;2022-12-19T04:24:42;48.40;;;23.20;;
8540;SDS011;4308;51.294;6.590;2022-12-19T04:27:10;48.67;;;24.37;;
8540;SDS011;4308;51.294;6.590;2022-12-19T04:29:39;46.50;;;22.20;;
8540;SDS011;4308;51.294;6.590;2022-12-19T04:32:07;45.60;;;21.73;;
8540;SDS011;4308;51.294;6.590;2022-12-19T04:34:36;48.63;;;23.90;;
8540;SDS011;4308;51.294;6.590;2022-12-19T04:37:09;46.87;;;23.47;;
8540;SDS011;4308;51.294;6.590;2022-12-19T04:39:36;54.77;;;23.07;;
8540;SDS011;4308;51.294;6.590;2022-12-19T04:42:04;54.93;;;23.97;;
8540;SDS011;4308;51.294;6.590;2022-12-19T04:44:32;49.23;;;22.80;;
8540;SDS011;4308;51.294;6.590;2022-12-19T04:46:59;48.97;;;21.40;;
8540;SDS011;4308;51.294;6.590;2022-12-19T04:49:27;50.77;;;23.47;;
8540;SDS011;4308;51.294;6.590;2022-12-19T04:51:54;46.43;;;22.03;;
8540;SDS011;4308;51.294;6.590;2022-12-19T04:54:22;46.97;;;22.50;;
8540;SDS011;4308;51.294;6.590;2022-12-19T04:56:51;49.13;;;23.33;;
8540;SDS011;4308;51.294;6.590;2022-12-19T04:59:18;47.90;;;23.23;;
8540;SDS011;4308;51.294;6.590;2022-12-19T05:01:46;56.03;;;24.53;;
8540;SDS011;4308;51.294;6.590;2022-12-19T05:04:13;50.80;;;23.30;;
8540;SDS011;4308;51.294;6.590;2022-12-19T05:06:41;53.27;;;24.90;;
8540;SDS011;4308;51.294;6.590;2022-12-19T05:09:10;55.17;;;23.40;;
8540;SDS011;4308;51.294;6.590;2022-12-19T05:11:37;52.63;;;23.77;;
8540;SDS011;4308;51.294;6.590;2022-12-19T05:14:05;44.33;;;21.70;;
8540;SDS011;4308;51.294;6.590;2022-12-19T05:16:32;49.33;;;22.37;;
8540;SDS011;4308;51.294;6.590;2022-12-19T05:19:00;62.00;;;25.07;;
8540;SDS011;4308;51.294;6.590;2022-12-19T05:21:28;49.40;;;23.33;;
8540;SDS011;4308;51.294;6.590;2022-12-19T05:23:55;54.17;;;23.97;;
8540;SDS011;4308;51.294;6.590;2022-12-19T05:26:25;59.87;;;24.87;;
8540;SDS011;4308;51.294;6.590;2022-12-19T05:28:55;51.30;;;23.63;;
8540;SDS011;4308;51.294;6.590;2022-12-19T05:31:22;58.00;;;23.93;;
8540;SDS011;4308;51.294;6.590;2022-12-19T05:33:50;55.50;;;24.50;;
8540;SDS011;4308;51.294;6.590;2022-12-19T05:36:17;57.50;;;24.53;;
8540;SDS011;4308;51.294;6.590;2022-12-19T05:38:45;60.67;;;25.83;;
8540;SDS011;4308;51.294;6.590;2022-12-19T05:41:13;53.40;;;24.30;;
8540;SDS011;4308;51.294;6.590;2022-12-19T05:43:41;49.97;;;22.93;;
8540;SDS011;4308;51.294;6.590;2022-12-19T05:46:09;54.30;;;23.87;;
8540;SDS011;4308;51.294;6.590;2022-12-19T05:48:37;54.53;;;24.10;;
8540;SDS011;4308;51.294;6.590;2022-12-19T05:51:04;54.90;;;26.03;;
8540;SDS011;4308;51.294;6.590;2022-12-19T05:53:35;62.93;;;26.03;;
8540;SDS011;4308;51.294;6.590;2022-12-19T05:56:04;60.57;;;26.77;;
8540;SDS011;4308;51.294;6.590;2022-12-19T05:58:34;48.47;;;22.73;;
8540;SDS011;4308;51.294;6.590;2022-12-19T06:01:09;54.77;;;24.50;;
8540;SDS011;4308;51.294;6.590;2022-12-19T06:03:37;46.90;;;21.77;;
8540;SDS011;4308;51.294;6.590;2022-12-19T06:06:05;48.60;;;24.00;;
8540;SDS011;4308;51.294;6.590;2022-12-19T06:08:33;59.87;;;23.07;;
8540;SDS011;4308;51.294;6.590;2022-12-19T06:11:02;51.73;;;22.37;;
8540;SDS011;4308;51.294;6.590;2022-12-19T06:13:29;50.60;;;23.40;;
8540;SDS011;4308;51.294;6.590;2022-12-19T06:16:01;52.53;;;24.07;;
8540;SDS011;4308;51.294;6.590;2022-12-19T06:18:29;56.60;;;24.67;;
8540;SDS011;4308;51.294;6.590;2022-12-19T06:21:01;48.00;;;23.27;;
8540;SDS011;4308;51.294;6.590;2022-12-19T06:23:29;50.70;;;21.57;;
8540;SDS011;4308;51.294;6.590;2022-12-19T06:25:58;55.87;;;23.93;;
8540;SDS011;4308;51.294;6.590;2022-12-19T06:28:25;48.73;;;23.00;;
8540;SDS011;4308;51.294;6.590;2022-12-19T06:30:56;49.07;;;23.13;;
8540;SDS011;4308;51.294;6.590;2022-12-19T06:33:25;44.77;;;22.17;;
8540;SDS011;4308;51.294;6.590;2022-12-19T06:35:59;59.13;;;23.70;;
8540;SDS011;4308;51.294;6.590;2022-12-19T06:38:27;41.23;;;21.23;;
8540;SDS011;4308;51.294;6.590;2022-12-19T06:40:54;48.10;;;22.83;;
8540;SDS011;4308;51.294;6.590;2022-12-19T06:43:23;46.23;;;21.73;;
8540;SDS011;4308;51.294;6.590;2022-12-19T06:45:51;49.63;;;23.90;;
8540;SDS011;4308;51.294;6.590;2022-12-19T06:48:18;48.93;;;23.27;;
8540;SDS011;4308;51.294;6.590;2022-12-19T06:50:46;48.13;;;23.17;;
8540;SDS011;4308;51.294;6.590;2022-12-19T06:53:13;45.80;;;22.13;;
8540;SDS011;4308;51.294;6.590;2022-12-19T06:55:41;46.43;;;22.60;;
8540;SDS011;4308;51.294;6.590;2022-12-19T06:58:09;43.10;;;21.90;;
8540;SDS011;4308;51.294;6.590;2022-12-19T07:00:36;50.77;;;21.57;;
8540;SDS011;4308;51.294;6.590;2022-12-19T07:03:04;44.87;;;20.43;;
8540;SDS011;4308;51.294;6.590;2022-12-19T07:05:32;46.63;;;22.47;;
8540;SDS011;4308;51.294;6.590;2022-12-19T07:08:00;41.77;;;21.17;;
8540;SDS011;4308;51.294;6.590;2022-12-19T07:10:27;42.23;;;20.47;;
8540;SDS011;4308;51.294;6.590;2022-12-19T07:12:55;41.07;;;20.53;;
8540;SDS011;4308;51.294;6.590;2022-12-19T07:15:23;38.37;;;19.07;;
8540;SDS011;4308;51.294;6.590;2022-12-19T07:17:51;40.30;;;21.47;;
8540;SDS011;4308;51.294;6.590;2022-12-19T07:20:19;42.00;;;21.53;;
8540;SDS011;4308;51.294;6.590;2022-12-19T07:22:47;39.83;;;19.87;;
8540;SDS011;4308;51.294;6.590;2022-12-19T07:25:15;42.70;;;20.93;;
8540;SDS011;4308;51.294;6.590;2022-12-19T07:27:43;46.47;;;21.10;;
8540;SDS011;4308;51.294;6.590;2022-12-19T07:30:10;41.10;;;19.77;;
8540;SDS011;4308;51.294;6.590;2022-12-19T07:32:38;47.57;;;21.17;;
8540;SDS011;4308;51.294;6.590;2022-12-19T07:35:06;39.57;;;20.13;;
8540;SDS011;4308;51.294;6.590;2022-12-19T07:37:33;39.77;;;20.93;;
8540;SDS011;4308;51.294;6.590;2022-12-19T07:40:01;41.97;;;20.07;;
8540;SDS011;4308;51.294;6.590;2022-12-19T07:42:29;46.43;;;20.13;;
8540;SDS011;4308;51.294;6.590;2022-12-19T07:44:58;41.87;;;21.80;;
8540;SDS011;4308;51.294;6.590;2022-12-19T07:47:26;43.17;;;20.17;;
8540;SDS011;4308;51.294;6.590;2022-12-19T07:49:53;39.37;;;20.33;;
8540;SDS011;4308;51.294;6.590;2022-12-19T07:52:21;43.47;;;20.60;;
8540;SDS011;4308;51.294;6.590;2022-12-19T07:54:48;38.20;;;18.90;;
8540;SDS011;4308;51.294;6.590;2022-12-19T07:57:16;41.87;;;21.13;;
8540;SDS011;4308;51.294;6.590;2022-12-19T07:59:43;37.30;;;19.27;;
8540;SDS011;4308;51.294;6.590;2022-12-19T08:02:11;39.60;;;20.13;;
8540;SDS011;4308;51.294;6.590;2022-12-19T08:04:39;41.50;;;20.83;;
8540;SDS011;4308;51.294;6.590;2022-12-19T08:07:06;39.33;;;20.30;;
8540;SDS011;4308;51.294;6.590;2022-12-19T08:09:34;38.73;;;20.53;;
8540;SDS011;4308;51.294;6.590;2022-12-19T08:12:01;42.90;;;20.00;;
8540;SDS011;4308;51.294;6.590;2022-12-19T08:14:29;40.77;;;20.03;;
8540;SDS011;4308;51.294;6.590;2022-12-19T08:16:56;41.20;;;20.50;;
8540;SDS011;4308;51.294;6.590;2022-12-19T08:19:44;34.77;;;19.20;;
8540;SDS011;4308;51.294;6.590;2022-12-19T08:22:14;40.50;;;19.80;;
8540;SDS011;4308;51.294;6.590;2022-12-19T08:24:42;36.03;;;18.50;;
8540;SDS011;4308;51.294;6.590;2022-12-19T08:27:09;37.47;;;20.17;;
8540;SDS011;4308;51.294;6.590;2022-12-19T08:29:37;33.30;;;18.70;;
8540;SDS011;4308;51.294;6.590;2022-12-19T08:32:04;35.77;;;18.83;;
8540;SDS011;4308;51.294;6.590;2022-12-19T08:34:32;37.67;;;19.30;;
8540;SDS011;4308;51.294;6.590;2022-12-19T08:36:59;40.33;;;20.90;;
8540;SDS011;4308;51.294;6.590;2022-12-19T08:39:27;34.13;;;18.87;;
8540;SDS011;4308;51.294;6.590;2022-12-19T08:41:55;40.20;;;18.53;;
8540;SDS011;4308;51.294;6.590;2022-12-19T08:44:22;31.93;;;18.33;;
8540;SDS011;4308;51.294;6.590;2022-12-19T08:46:50;34.53;;;18.57;;
8540;SDS011;4308;51.294;6.590;2022-12-19T08:49:20;32.23;;;17.57;;
8540;SDS011;4308;51.294;6.590;2022-12-19T08:51:48;39.50;;;20.23;;
8540;SDS011;4308;51.294;6.590;2022-12-19T08:54:15;35.37;;;18.17;;
8540;SDS011;4308;51.294;6.590;2022-12-19T08:56:43;35.67;;;18.43;;
8540;SDS011;4308;51.294;6.590;2022-12-19T08:59:13;39.87;;;20.13;;
8540;SDS011;4308;51.294;6.590;2022-12-19T09:01:57;33.27;;;18.20;;
8540;SDS011;4308;51.294;6.590;2022-12-19T09:04:26;40.53;;;21.05;;
8540;SDS011;4308;51.294;6.590;2022-12-19T09:07:13;35.90;;;19.13;;
8540;SDS011;4308;51.294;6.590;2022-12-19T09:09:42;31.63;;;17.47;;
8540;SDS011;4308;51.294;6.590;2022-12-19T09:12:11;36.07;;;19.13;;
8540;SDS011;4308;51.294;6.590;2022-12-19T09:14:41;34.03;;;18.93;;
8540;SDS011;4308;51.294;6.590;2022-12-19T09:17:08;30.57;;;17.87;;
8540;SDS011;4308;51.294;6.590;2022-12-19T09:19:37;34.73;;;19.73;;
8540;SDS011;4308;51.294;6.590;2022-12-19T09:22:12;34.87;;;17.97;;
8540;SDS011;4308;51.294;6.590;2022-12-19T09:24:40;32.73;;;17.70;;
8540;SDS011;4308;51.294;6.590;2022-12-19T09:27:07;31.13;;;16.90;;
8540;SDS011;4308;51.294;6.590;2022-12-19T09:29:35;32.83;;;17.80;;
8540;SDS011;4308;51.294;6.590;2022-12-19T09:32:03;37.13;;;18.97;;
8540;SDS011;4308;51.294;6.590;2022-12-19T09:34:30;39.83;;;18.93;;
8540;SDS011;4308;51.294;6.590;2022-12-19T09:37:08;32.53;;;17.40;;
8540;SDS011;4308;51.294;6.590;2022-12-19T09:39:42;39.73;;;18.10;;
8540;SDS011;4308;51.294;6.590;2022-12-19T09:47:54;34.33;;;19.03;;
8540;SDS011;4308;51.294;6.590;2022-12-19T09:50:45;35.27;;;18.70;;
8540;SDS011;4308;51.294;6.590;2022-12-19T09:53:15;32.50;;;18.07;;
8540;SDS011;4308;51.294;6.590;2022-12-19T09:55:45;32.83;;;18.50;;
8540;SDS011;4308;51.294;6.590;2022-12-19T10:00:48;34.00;;;18.97;;
8540;SDS011;4308;51.294;6.590;2022-12-19T10:05:59;33.30;;;17.13;;
8540;SDS011;4308;51.294;6.590;2022-12-19T10:08:49;28.90;;;16.40;;
8540;SDS011;4308;51.294;6.590;2022-12-19T10:11:43;29.43;;;17.00;;
8540;SDS011;4308;51.294;6.590;2022-12-19T10:14:43;31.70;;;17.13;;
8540;SDS011;4308;51.294;6.590;2022-12-19T10:20:02;28.83;;;17.03;;
8540;SDS011;4308;51.294;6.590;2022-12-19T10:22:59;31.03;;;17.30;;
8540;SDS011;4308;51.294;6.590;2022-12-19T10:28:02;28.00;;;16.37;;
8540;SDS011;4308;51.294;6.590;2022-12-19T10:30:35;31.73;;;16.53;;
8540;SDS011;4308;51.294;6.590;2022-12-19T10:33:08;29.77;;;16.83;;
8540;SDS011;4308;51.294;6.590;2022-12-19T10:35:49;31.80;;;20.47;;
8540;SDS011;4308;51.294;6.590;2022-12-19T10:38:37;27.90;;;16.93;;
8540;SDS011;4308;51.294;6.590;2022-12-19T10:41:21;29.53;;;16.73;;
8540;SDS011;4308;51.294;6.590;2022-12-19T10:46:35;27.37;;;15.73;;
8540;SDS011;4308;51.294;6.590;2022-12-19T10:49:10;27.40;;;15.47;;
8540;SDS011;4308;51.294;6.590;2022-12-19T10:51:38;24.80;;;15.20;;
8540;SDS011;4308;51.294;6.590;2022-12-19T10:54:05;25.97;;;15.93;;
8540;SDS011;4308;51.294;6.590;2022-12-19T10:56:33;28.43;;;16.20;;
8540;SDS011;4308;51.294;6.590;2022-12-19T10:59:12;26.43;;;15.70;;
8540;SDS011;4308;51.294;6.590;2022-12-19T11:01:44;25.27;;;14.70;;
8540;SDS011;4308;51.294;6.590;2022-12-19T11:04:32;26.27;;;15.47;;
8540;SDS011;4308;51.294;6.590;2022-12-19T11:09:30;29.50;;;17.90;;
8540;SDS011;4308;51.294;6.590;2022-12-19T11:12:09;31.93;;;19.57;;
8540;SDS011;4308;51.294;6.590;2022-12-19T11:15:11;25.53;;;15.30;;
8540;SDS011;4308;51.294;6.590;2022-12-19T11:18:10;27.10;;;15.90;;
8540;SDS011;4308;51.294;6.590;2022-12-19T11:20:59;28.93;;;15.87;;
8540;SDS011;4308;51.294;6.590;2022-12-19T11:24:10;27.60;;;15.70;;
8540;SDS011;4308;51.294;6.590;2022-12-19T11:26:58;27.42;;;17.08;;
8540;SDS011;4308;51.294;6.590;2022-12-19T11:29:46;28.67;;;16.03;;
8540;SDS011;4308;51.294;6.590;2022-12-19T11:32:37;25.57;;;15.40;;
8540;SDS011;4308;51.294;6.590;2022-12-19T11:37:47;25.33;;;16.07;;
8540;SDS011;4308;51.294;6.590;2022-12-19T11:40:23;27.17;;;15.37;;
8540;SDS011;4308;51.294;6.590;2022-12-19T11:48:16;28.93;;;15.80;;
8540;SDS011;4308;51.294;6.590;2022-12-19T11:50:59;27.07;;;16.13;;
8540;SDS011;4308;51.294;6.590;2022-12-19T11:53:30;24.80;;;15.57;;
8540;SDS011;4308;51.294;6.590;2022-12-19T11:56:04;23.77;;;15.03;;
8540;SDS011;4308;51.294;6.590;2022-12-19T11:58:41;22.40;;;15.00;;
8540;SDS011;4308;51.294;6.590;2022-12-19T12:01:16;24.50;;;15.30;;
8540;SDS011;4308;51.294;6.590;2022-12-19T12:06:32;25.87;;;15.00;;
8540;SDS011;4308;51.294;6.590;2022-12-19T12:24:19;23.07;;;14.50;;
8540;SDS011;4308;51.294;6.590;2022-12-19T12:30:21;22.13;;;14.63;;
8540;SDS011;4308;51.294;6.590;2022-12-19T12:33:34;21.67;;;13.57;;
8540;SDS011;4308;51.294;6.590;2022-12-19T12:39:30;22.13;;;13.43;;
8540;SDS011;4308;51.294;6.590;2022-12-19T12:44:33;23.27;;;14.50;;
8540;SDS011;4308;51.294;6.590;2022-12-19T12:47:15;24.83;;;14.43;;
8540;SDS011;4308;51.294;6.590;2022-12-19T12:49:44;23.13;;;13.83;;
8540;SDS011;4308;51.294;6.590;2022-12-19T12:52:14;22.43;;;14.30;;
8540;SDS011;4308;51.294;6.590;2022-12-19T12:54:45;22.83;;;13.60;;
8540;SDS011;4308;51.294;6.590;2022-12-19T12:57:18;21.83;;;13.40;;
8540;SDS011;4308;51.294;6.590;2022-12-19T12:59:47;23.43;;;14.60;;
8540;SDS011;4308;51.294;6.590;2022-12-19T13:02:36;20.60;;;12.53;;
8540;SDS011;4308;51.294;6.590;2022-12-19T13:05:21;22.80;;;13.53;;
8540;SDS011;4308;51.294;6.590;2022-12-19T13:07:53;21.97;;;14.63;;
8540;SDS011;4308;51.294;6.590;2022-12-19T13:10:23;24.80;;;14.07;;
8540;SDS011;4308;51.294;6.590;2022-12-19T13:12:58;22.67;;;14.00;;
8540;SDS011;4308;51.294;6.590;2022-12-19T13:30:29;24.33;;;13.87;;
8540;SDS011;4308;51.294;6.590;2022-12-19T13:38:21;23.43;;;15.47;;
8540;SDS011;4308;51.294;6.590;2022-12-19T13:41:24;26.33;;;15.27;;
8540;SDS011;4308;51.294;6.590;2022-12-19T13:43:56;23.20;;;14.60;;
8540;SDS011;4308;51.294;6.590;2022-12-19T13:49:27;23.23;;;13.97;;
8540;SDS011;4308;51.294;6.590;2022-12-19T13:52:02;24.03;;;14.50;;
8540;SDS011;4308;51.294;6.590;2022-12-19T13:54:32;25.13;;;14.93;;
8540;SDS011;4308;51.294;6.590;2022-12-19T13:57:00;22.07;;;14.37;;
8540;SDS011;4308;51.294;6.590;2022-12-19T13:59:36;23.90;;;13.43;;
8540;SDS011;4308;51.294;6.590;2022-12-19T14:02:13;20.30;;;13.43;;
8540;SDS011;4308;51.294;6.590;2022-12-19T14:04:42;23.83;;;13.53;;
8540;SDS011;4308;51.294;6.590;2022-12-19T14:07:55;24.47;;;13.07;;
8540;SDS011;4308;51.294;6.590;2022-12-19T14:10:03;21.10;;;13.13;;
8540;SDS011;4308;51.294;6.590;2022-12-19T14:12:51;22.50;;;13.43;;
8540;SDS011;4308;51.294;6.590;2022-12-19T14:15:40;18.83;;;12.53;;
8540;SDS011;4308;51.294;6.590;2022-12-19T14:18:21;20.27;;;12.93;;
8540;SDS011;4308;51.294;6.590;2022-12-19T14:21:17;19.83;;;12.93;;
8540;SDS011;4308;51.294;6.590;2022-12-19T14:26:35;19.10;;;11.97;;
8540;SDS011;4308;51.294;6.590;2022-12-19T14:29:24;21.97;;;11.83;;
8540;SDS011;4308;51.294;6.590;2022-12-19T14:32:13;20.47;;;12.30;;
8540;SDS011;4308;51.294;6.590;2022-12-19T14:35:04;21.50;;;13.07;;
8540;SDS011;4308;51.294;6.590;2022-12-19T14:37:57;20.07;;;12.87;;
8540;SDS011;4308;51.294;6.590;2022-12-19T14:40:45;22.77;;;13.33;;
8540;SDS011;4308;51.294;6.590;2022-12-19T14:43:33;20.50;;;13.37;;
8540;SDS011;4308;51.294;6.590;2022-12-19T14:58:07;21.50;;;12.27;;
8540;SDS011;4308;51.294;6.590;2022-12-19T15:00:55;21.60;;;12.57;;
8540;SDS011;4308;51.294;6.590;2022-12-19T15:03:38;19.13;;;12.20;;
8540;SDS011;4308;51.294;6.590;2022-12-19T15:06:15;24.10;;;13.03;;
8540;SDS011;4308;51.294;6.590;2022-12-19T15:09:04;19.47;;;12.00;;
8540;SDS011;4308;51.294;6.590;2022-12-19T15:11:53;19.23;;;12.03;;
8540;SDS011;4308;51.294;6.590;2022-12-19T15:14:42;18.93;;;12.23;;
8540;SDS011;4308;51.294;6.590;2022-12-19T15:17:22;19.20;;;11.80;;
8540;SDS011;4308;51.294;6.590;2022-12-19T15:19:50;18.53;;;12.17;;
8540;SDS011;4308;51.294;6.590;2022-12-19T15:22:18;20.83;;;12.57;;
8540;SDS011;4308;51.294;6.590;2022-12-19T15:24:45;21.47;;;11.33;;
8540;SDS011;4308;51.294;6.590;2022-12-19T15:27:15;20.47;;;11.57;;
8540;SDS011;4308;51.294;6.590;2022-12-19T15:29:43;18.87;;;10.80;;
8540;SDS011;4308;51.294;6.590;2022-12-19T15:32:14;17.10;;;10.93;;
8540;SDS011;4308;51.294;6.590;2022-12-19T15:34:42;18.50;;;10.83;;
8540;SDS011;4308;51.294;6.590;2022-12-19T15:37:17;18.43;;;10.90;;
8540;SDS011;4308;51.294;6.590;2022-12-19T15:39:44;17.23;;;11.57;;
8540;SDS011;4308;51.294;6.590;2022-12-19T15:42:19;16.00;;;9.97;;
8540;SDS011;4308;51.294;6.590;2022-12-19T15:44:48;14.77;;;9.83;;
8540;SDS011;4308;51.294;6.590;2022-12-19T15:47:17;16.30;;;10.33;;
8540;SDS011;4308;51.294;6.590;2022-12-19T15:49:45;17.27;;;10.17;;
8540;SDS011;4308;51.294;6.590;2022-12-19T15:52:16;13.87;;;9.90;;
8540;SDS011;4308;51.294;6.590;2022-12-19T15:54:44;16.17;;;9.87;;
8540;SDS011;4308;51.294;6.590;2022-12-19T16:00:20;17.67;;;9.23;;
8540;SDS011;4308;51.294;6.590;2022-12-19T16:02:48;14.27;;;9.30;;
8540;SDS011;4308;51.294;6.590;2022-12-19T16:05:35;16.53;;;10.33;;
8540;SDS011;4308;51.294;6.590;2022-12-19T16:08:13;14.93;;;9.20;;
8540;SDS011;4308;51.294;6.590;2022-12-19T16:10:41;13.50;;;9.27;;
8540;SDS011;4308;51.294;6.590;2022-12-19T16:13:19;14.93;;;9.77;;
8540;SDS011;4308;51.294;6.590;2022-12-19T16:15:47;15.50;;;9.87;;
8540;SDS011;4308;51.294;6.590;2022-12-19T16:18:15;12.97;;;9.90;;
8540;SDS011;4308;51.294;6.590;2022-12-19T16:20:42;16.47;;;9.63;;
8540;SDS011;4308;51.294;6.590;2022-12-19T16:23:11;13.23;;;9.20;;
8540;SDS011;4308;51.294;6.590;2022-12-19T16:25:45;12.63;;;8.93;;
8540;SDS011;4308;51.294;6.590;2022-12-19T16:28:15;15.27;;;8.97;;
8540;SDS011;4308;51.294;6.590;2022-12-19T16:30:43;16.47;;;9.07;;
8540;SDS011;4308;51.294;6.590;2022-12-19T16:33:18;15.53;;;9.63;;
8540;SDS011;4308;51.294;6.590;2022-12-19T16:35:45;15.17;;;10.00;;
8540;SDS011;4308;51.294;6.590;2022-12-19T16:38:30;17.97;;;9.57;;
8540;SDS011;4308;51.294;6.590;2022-12-19T16:40:58;12.57;;;9.03;;
8540;SDS011;4308;51.294;6.590;2022-12-19T16:43:29;16.67;;;9.47;;
8540;SDS011;4308;51.294;6.590;2022-12-19T16:45:57;14.00;;;9.70;;
8540;SDS011;4308;51.294;6.590;2022-12-19T16:48:28;16.57;;;9.17;;
8540;SDS011;4308;51.294;6.590;2022-12-19T16:50:58;14.33;;;9.83;;
8540;SDS011;4308;51.294;6.590;2022-12-19T16:53:25;15.20;;;10.00;;
8540;SDS011;4308;51.294;6.590;2022-12-19T16:55:53;14.30;;;9.87;;
8540;SDS011;4308;51.294;6.590;2022-12-19T16:58:23;19.90;;;10.43;;
8540;SDS011;4308;51.294;6.590;2022-12-19T17:00:52;14.43;;;8.63;;
8540;SDS011;4308;51.294;6.590;2022-12-19T17:03:44;16.17;;;9.33;;
8540;SDS011;4308;51.294;6.590;2022-12-19T17:06:11;14.80;;;10.17;;
8540;SDS011;4308;51.294;6.590;2022-12-19T17:08:42;12.37;;;8.90;;
8540;SDS011;4308;51.294;6.590;2022-12-19T17:11:17;14.67;;;9.63;;
8540;SDS011;4308;51.294;6.590;2022-12-19T17:13:49;14.57;;;9.63;;
8540;SDS011;4308;51.294;6.590;2022-12-19T17:16:17;13.77;;;8.30;;
8540;SDS011;4308;51.294;6.590;2022-12-19T17:18:45;13.73;;;8.60;;
8540;SDS011;4308;51.294;6.590;2022-12-19T17:21:14;17.43;;;9.67;;
8540;SDS011;4308;51.294;6.590;2022-12-19T17:23:42;16.27;;;9.13;;
8540;SDS011;4308;51.294;6.590;2022-12-19T17:26:10;13.13;;;9.23;;